createdAt,value
2023-05-02T00:00:37.044Z,10.60
2023-05-02T00:07:20.516Z,10.40
2023-05-02T00:14:02.821Z,10.40
2023-05-02T00:20:45.511Z,10.30
2023-05-02T00:27:29.454Z,10.30
2023-05-02T00:34:11.828Z,10.30
2023-05-02T00:40:54.185Z,10.20
2023-05-02T00:47:36.515Z,10.20
2023-05-02T00:54:18.842Z,10.10
2023-05-02T01:01:12.432Z,10.10
2023-05-02T01:07:57.757Z,10.00
2023-05-02T01:14:42.688Z,10.00
2023-05-02T01:21:25.579Z,10.00
2023-05-02T01:28:39.957Z,10.00
2023-05-02T01:35:24.860Z,10.00
2023-05-02T01:42:07.161Z,9.90
2023-05-02T01:48:52.031Z,9.90
2023-05-02T01:55:36.538Z,9.90
2023-05-02T02:02:19.742Z,9.80
2023-05-02T02:09:03.689Z,9.70
2023-05-02T02:15:52.862Z,9.70
2023-05-02T02:22:39.120Z,9.70
2023-05-02T02:29:21.430Z,9.70
2023-05-02T02:36:17.611Z,9.60
2023-05-02T02:43:39.567Z,9.60
2023-05-02T02:50:50.976Z,9.50
2023-05-02T02:57:59.020Z,9.40
2023-05-02T03:04:43.276Z,9.40
2023-05-02T03:11:27.163Z,9.20
2023-05-02T03:18:10.203Z,9.10
2023-05-02T03:24:52.879Z,9.20
2023-05-02T03:31:35.363Z,9.20
2023-05-02T03:38:17.823Z,9.30
2023-05-02T03:45:03.871Z,9.40
2023-05-02T03:51:46.473Z,9.50
2023-05-02T03:58:32.802Z,9.70
2023-05-02T04:05:16.161Z,9.80
2023-05-02T04:11:59.897Z,9.90
2023-05-02T04:18:42.272Z,10.10
2023-05-02T04:25:25.244Z,10.00
2023-05-02T04:32:11.566Z,10.00
2023-05-02T04:38:54.961Z,9.90
2023-05-02T04:45:37.956Z,10.10
2023-05-02T04:52:25.352Z,10.20
2023-05-02T04:59:07.812Z,10.30
2023-05-02T05:05:50.737Z,10.40
2023-05-02T05:12:35.912Z,10.70
2023-05-02T05:19:18.332Z,10.80
2023-05-02T05:26:11.248Z,10.90
2023-05-02T05:32:55.508Z,11.20
2023-05-02T05:39:37.945Z,11.40
2023-05-02T05:46:21.298Z,11.70
2023-05-02T05:53:03.638Z,12.10
2023-05-02T05:59:46.377Z,12.30
2023-05-02T06:06:29.989Z,12.60
2023-05-02T06:13:12.563Z,12.70
2023-05-02T06:19:58.217Z,13.40
2023-05-02T06:26:40.927Z,14.10
2023-05-02T06:33:23.236Z,14.30
2023-05-02T06:40:06.086Z,14.60
2023-05-02T06:46:48.600Z,16.10
2023-05-02T06:53:33.077Z,15.50
2023-05-02T07:00:19.352Z,15.10
2023-05-02T07:07:01.726Z,14.60
2023-05-02T07:13:44.293Z,14.20
2023-05-02T07:20:26.575Z,14.40
2023-05-02T07:27:10.178Z,14.20
2023-05-02T07:33:52.454Z,14.20
2023-05-02T07:40:34.720Z,14.40
2023-05-02T07:47:17.018Z,14.30
2023-05-02T07:53:59.482Z,14.30
2023-05-02T08:00:42.054Z,13.90
2023-05-02T08:07:24.418Z,14.00
2023-05-02T08:14:06.689Z,14.40
2023-05-02T08:20:50.659Z,15.00
2023-05-02T08:27:35.222Z,15.50
2023-05-02T08:34:17.506Z,15.40
2023-05-02T08:41:00.859Z,15.40
2023-05-02T08:47:44.677Z,16.10
2023-05-02T08:54:27.826Z,16.00
2023-05-02T09:01:16.794Z,15.90
2023-05-02T09:07:59.321Z,16.10
2023-05-02T09:14:43.644Z,16.50
2023-05-02T09:21:34.875Z,17.60
2023-05-02T09:28:17.226Z,18.60
2023-05-02T09:35:06.624Z,20.00
2023-05-02T09:41:49.496Z,19.40
2023-05-02T09:48:34.027Z,20.20
2023-05-02T09:55:25.539Z,21.90
2023-05-02T10:02:11.075Z,22.00
2023-05-02T10:08:53.483Z,21.90
2023-05-02T10:15:42.327Z,22.40
2023-05-02T10:22:25.851Z,23.80
2023-05-02T10:29:08.683Z,25.90
2023-05-02T10:35:51.166Z,25.80
2023-05-02T10:42:39.202Z,25.50
2023-05-02T10:49:23.744Z,24.90
2023-05-02T10:56:26.458Z,22.80
2023-05-02T11:03:10.986Z,21.10
2023-05-02T11:09:53.370Z,21.10
2023-05-02T11:17:00.775Z,21.40
2023-05-02T11:23:43.753Z,21.90
2023-05-02T11:30:40.855Z,20.50
2023-05-02T11:37:23.156Z,20.70
2023-05-02T11:44:05.539Z,20.20
2023-05-02T11:50:51.050Z,19.70
2023-05-02T11:57:33.834Z,19.20
2023-05-02T12:04:16.241Z,18.80
2023-05-02T12:10:58.524Z,19.50
2023-05-02T12:17:42.960Z,19.50
2023-05-02T12:24:25.520Z,19.70
2023-05-02T12:31:11.051Z,19.70
2023-05-02T12:37:56.783Z,18.90
2023-05-02T12:44:40.773Z,18.50
2023-05-02T12:51:28.490Z,19.20
2023-05-02T12:58:14.649Z,18.60
2023-05-02T13:04:56.977Z,18.60
2023-05-02T13:11:39.460Z,18.80
2023-05-02T13:18:21.841Z,19.00
2023-05-02T13:25:24.251Z,20.00
2023-05-02T13:32:06.538Z,20.50
2023-05-02T13:38:48.802Z,21.10
2023-05-02T13:45:31.163Z,19.80
2023-05-02T13:52:13.560Z,19.30
2023-05-02T13:58:56.174Z,19.10
2023-05-02T14:05:40.968Z,19.40
2023-05-02T14:12:23.312Z,19.50
2023-05-02T14:19:05.862Z,19.90
2023-05-02T14:25:48.184Z,19.60
2023-05-02T14:32:30.559Z,19.60
2023-05-02T14:39:12.995Z,19.20
2023-05-02T14:45:56.694Z,18.90
2023-05-02T14:52:39.050Z,18.60
2023-05-02T14:59:21.717Z,18.10
2023-05-02T15:06:04.254Z,18.60
2023-05-02T15:12:50.617Z,19.60
2023-05-02T15:19:32.906Z,19.60
2023-05-02T15:26:15.244Z,20.10
2023-05-02T15:32:57.723Z,20.70
2023-05-02T15:39:40.250Z,20.00
2023-05-02T15:46:22.729Z,20.20
2023-05-02T15:53:05.081Z,19.60
2023-05-02T15:59:47.397Z,19.50
2023-05-02T16:06:30.929Z,19.00
2023-05-02T16:13:13.268Z,19.10
2023-05-02T16:19:55.582Z,18.90
2023-05-02T16:26:37.905Z,19.00
2023-05-02T16:33:21.450Z,18.90
2023-05-02T16:40:05.630Z,19.00
2023-05-02T16:46:48.702Z,18.90
2023-05-02T16:53:31.291Z,18.90
2023-05-02T17:00:14.805Z,18.90
2023-05-02T17:06:57.151Z,18.70
2023-05-02T17:13:39.569Z,18.70
2023-05-02T17:20:21.895Z,18.40
2023-05-02T17:27:04.248Z,18.10
2023-05-02T17:33:47.475Z,18.00
2023-05-02T17:40:29.838Z,18.00
2023-05-02T17:47:12.970Z,17.80
2023-05-02T17:53:55.422Z,17.60
2023-05-02T18:00:38.071Z,17.50
2023-05-02T18:07:23.999Z,17.30
2023-05-02T18:14:06.368Z,17.10
2023-05-02T18:20:48.758Z,16.80
2023-05-02T18:27:31.088Z,16.40
2023-05-02T18:34:13.443Z,16.20
2023-05-02T18:40:55.754Z,16.10
2023-05-02T18:47:38.073Z,15.80
2023-05-02T18:54:20.599Z,15.70
2023-05-02T19:01:14.937Z,15.40
2023-05-02T19:07:57.532Z,15.30
2023-05-02T19:14:40.171Z,15.10
2023-05-02T19:21:22.611Z,14.90
2023-05-02T19:28:05.041Z,14.80
2023-05-02T19:34:47.442Z,14.80
2023-05-02T19:41:29.822Z,14.80
2023-05-02T19:48:12.846Z,14.80
2023-05-02T19:54:56.546Z,14.70
2023-05-02T20:01:38.836Z,14.70
2023-05-02T20:08:23.795Z,14.60
2023-05-02T20:15:06.630Z,14.40
2023-05-02T20:21:48.949Z,14.40
2023-05-02T20:28:31.293Z,14.30
2023-05-02T20:35:13.587Z,14.10
2023-05-02T20:41:58.152Z,14.00
2023-05-02T20:48:40.424Z,14.00
2023-05-02T20:55:23.171Z,13.90
2023-05-02T21:02:08.438Z,13.80
2023-05-02T21:08:51.120Z,13.50
2023-05-02T21:15:36.629Z,13.30
2023-05-02T21:22:18.977Z,13.00
2023-05-02T21:29:01.343Z,12.60
2023-05-02T21:35:44.464Z,12.50
2023-05-02T21:42:26.788Z,12.50
2023-05-02T21:49:09.149Z,12.50
2023-05-02T21:55:52.683Z,12.40
2023-05-02T22:02:35.260Z,12.20
2023-05-02T22:09:18.478Z,12.10
2023-05-02T22:16:00.808Z,11.90
2023-05-02T22:22:43.076Z,11.80
2023-05-02T22:29:25.379Z,11.80
2023-05-02T22:36:08.660Z,11.70
2023-05-02T22:42:51.186Z,11.60
2023-05-02T22:49:33.932Z,11.50
2023-05-02T22:56:16.270Z,11.50
2023-05-02T23:02:58.688Z,11.40
2023-05-02T23:09:40.979Z,11.40
2023-05-02T23:16:23.955Z,11.30
2023-05-02T23:23:06.268Z,11.10
2023-05-02T23:29:49.124Z,11.00
2023-05-02T23:36:32.897Z,11.00
2023-05-02T23:43:15.237Z,11.00
2023-05-02T23:49:57.490Z,11.00
2023-05-02T23:56:39.933Z,11.00
